sensor_id;sensor_type;location;lat;lon;timestamp;temperature;humidity
1347;DHT22;667;48.796;9.480;2023-03-01T00:01:50;2.90;62.50
1347;DHT22;667;48.796;9.480;2023-03-01T00:04:16;2.90;62.70
1347;DHT22;667;48.796;9.480;2023-03-01T00:06:44;2.90;62.80
1347;DHT22;667;48.796;9.480;2023-03-01T00:09:12;2.90;62.90
1347;DHT22;667;48.796;9.480;2023-03-01T00:11:38;2.90;62.90
1347;DHT22;667;48.796;9.480;2023-03-01T00:14:04;2.90;62.60
1347;DHT22;667;48.796;9.480;2023-03-01T00:16:38;2.90;62.60
1347;DHT22;667;48.796;9.480;2023-03-01T00:19:06;2.80;62.60
1347;DHT22;667;48.796;9.480;2023-03-01T00:21:32;2.80;62.60
1347;DHT22;667;48.796;9.480;2023-03-01T00:24:00;2.80;62.60
1347;DHT22;667;48.796;9.480;2023-03-01T00:26:26;2.80;62.90
1347;DHT22;667;48.796;9.480;2023-03-01T00:28:52;2.70;63.00
1347;DHT22;667;48.796;9.480;2023-03-01T00:31:24;2.70;62.80
1347;DHT22;667;48.796;9.480;2023-03-01T00:33:57;2.70;62.90
1347;DHT22;667;48.796;9.480;2023-03-01T00:36:26;2.70;62.80
1347;DHT22;667;48.796;9.480;2023-03-01T00:38:52;2.70;62.80
1347;DHT22;667;48.796;9.480;2023-03-01T00:41:19;2.70;62.70
1347;DHT22;667;48.796;9.480;2023-03-01T00:43:45;2.70;63.00
1347;DHT22;667;48.796;9.480;2023-03-01T00:46:13;2.70;63.00
1347;DHT22;667;48.796;9.480;2023-03-01T00:48:39;2.70;63.00
1347;DHT22;667;48.796;9.480;2023-03-01T00:51:09;2.70;63.00
1347;DHT22;667;48.796;9.480;2023-03-01T00:53:36;2.70;63.00
1347;DHT22;667;48.796;9.480;2023-03-01T00:56:03;2.70;63.00
1347;DHT22;667;48.796;9.480;2023-03-01T00:58:29;2.70;63.00
1347;DHT22;667;48.796;9.480;2023-03-01T01:00:55;2.60;62.80
1347;DHT22;667;48.796;9.480;2023-03-01T01:03:21;2.60;62.80
1347;DHT22;667;48.796;9.480;2023-03-01T01:05:47;2.60;62.80
1347;DHT22;667;48.796;9.480;2023-03-01T01:08:12;2.60;63.50
1347;DHT22;667;48.796;9.480;2023-03-01T01:10:38;2.60;62.80
1347;DHT22;667;48.796;9.480;2023-03-01T01:13:04;2.60;62.80
1347;DHT22;667;48.796;9.480;2023-03-01T01:15:33;2.60;62.80
1347;DHT22;667;48.796;9.480;2023-03-01T01:17:58;2.50;62.90
1347;DHT22;667;48.796;9.480;2023-03-01T01:20:24;2.50;62.90
1347;DHT22;667;48.796;9.480;2023-03-01T01:22:49;2.50;63.00
1347;DHT22;667;48.796;9.480;2023-03-01T01:25:16;2.50;63.10
1347;DHT22;667;48.796;9.480;2023-03-01T01:27:42;2.50;63.30
1347;DHT22;667;48.796;9.480;2023-03-01T01:30:08;2.40;63.30
1347;DHT22;667;48.796;9.480;2023-03-01T01:32:33;2.50;63.50
1347;DHT22;667;48.796;9.480;2023-03-01T01:34:59;2.40;63.60
1347;DHT22;667;48.796;9.480;2023-03-01T01:37:24;2.40;63.70
1347;DHT22;667;48.796;9.480;2023-03-01T01:39:57;2.40;63.70
1347;DHT22;667;48.796;9.480;2023-03-01T01:42:23;2.40;63.70
1347;DHT22;667;48.796;9.480;2023-03-01T01:47:54;2.40;64.30
1347;DHT22;667;48.796;9.480;2023-03-01T01:50:20;2.40;64.40
1347;DHT22;667;48.796;9.480;2023-03-01T01:52:48;2.40;64.60
1347;DHT22;667;48.796;9.480;2023-03-01T01:55:19;2.50;64.90
1347;DHT22;667;48.796;9.480;2023-03-01T01:57:59;2.50;64.90
1347;DHT22;667;48.796;9.480;2023-03-01T02:00:28;2.60;64.90
1347;DHT22;667;48.796;9.480;2023-03-01T02:02:57;2.60;65.00
1347;DHT22;667;48.796;9.480;2023-03-01T02:07:54;2.60;65.00
1347;DHT22;667;48.796;9.480;2023-03-01T02:10:22;2.70;65.10
1347;DHT22;667;48.796;9.480;2023-03-01T02:12:49;2.70;65.30
1347;DHT22;667;48.796;9.480;2023-03-01T02:15:14;2.70;65.40
1347;DHT22;667;48.796;9.480;2023-03-01T02:17:40;2.70;65.40
1347;DHT22;667;48.796;9.480;2023-03-01T02:23:11;2.80;65.50
1347;DHT22;667;48.796;9.480;2023-03-01T02:30:41;2.90;65.90
1347;DHT22;667;48.796;9.480;2023-03-01T02:33:28;2.90;65.90
1347;DHT22;667;48.796;9.480;2023-03-01T02:35:55;2.90;65.90
1347;DHT22;667;48.796;9.480;2023-03-01T02:38:21;2.90;65.90
1347;DHT22;667;48.796;9.480;2023-03-01T02:40:49;2.90;65.90
1347;DHT22;667;48.796;9.480;2023-03-01T02:43:16;3.00;66.00
1347;DHT22;667;48.796;9.480;2023-03-01T02:45:50;3.00;66.00
1347;DHT22;667;48.796;9.480;2023-03-01T02:48:17;3.00;66.00
1347;DHT22;667;48.796;9.480;2023-03-01T02:51:07;3.10;66.10
1347;DHT22;667;48.796;9.480;2023-03-01T02:53:53;3.10;66.00
1347;DHT22;667;48.796;9.480;2023-03-01T02:56:21;3.10;66.10
1347;DHT22;667;48.796;9.480;2023-03-01T02:58:47;3.10;66.10
1347;DHT22;667;48.796;9.480;2023-03-01T03:01:18;3.10;66.00
1347;DHT22;667;48.796;9.480;2023-03-01T03:03:43;3.10;66.10
1347;DHT22;667;48.796;9.480;2023-03-01T03:06:09;3.20;66.20
1347;DHT22;667;48.796;9.480;2023-03-01T03:08:35;3.20;66.20
1347;DHT22;667;48.796;9.480;2023-03-01T03:11:01;3.20;66.20
1347;DHT22;667;48.796;9.480;2023-03-01T03:13:27;3.20;66.20
1347;DHT22;667;48.796;9.480;2023-03-01T03:15:54;3.20;66.30
1347;DHT22;667;48.796;9.480;2023-03-01T03:18:20;3.20;66.40
1347;DHT22;667;48.796;9.480;2023-03-01T03:20:46;3.20;66.50
1347;DHT22;667;48.796;9.480;2023-03-01T03:23:12;3.20;66.50
1347;DHT22;667;48.796;9.480;2023-03-01T03:25:37;3.20;66.50
1347;DHT22;667;48.796;9.480;2023-03-01T03:28:04;3.30;66.70
1347;DHT22;667;48.796;9.480;2023-03-01T03:30:36;3.30;66.80
1347;DHT22;667;48.796;9.480;2023-03-01T03:33:05;3.30;66.70
1347;DHT22;667;48.796;9.480;2023-03-01T03:35:34;3.30;66.70
1347;DHT22;667;48.796;9.480;2023-03-01T03:38:06;3.30;66.70
1347;DHT22;667;48.796;9.480;2023-03-01T03:40:39;3.30;66.90
1347;DHT22;667;48.796;9.480;2023-03-01T03:43:11;3.30;66.90
1347;DHT22;667;48.796;9.480;2023-03-01T03:45:37;3.40;67.10
1347;DHT22;667;48.796;9.480;2023-03-01T03:48:05;3.40;67.10
1347;DHT22;667;48.796;9.480;2023-03-01T03:50:31;3.40;67.00
1347;DHT22;667;48.796;9.480;2023-03-01T03:52:57;3.40;67.00
1347;DHT22;667;48.796;9.480;2023-03-01T03:55:22;3.50;67.10
1347;DHT22;667;48.796;9.480;2023-03-01T03:57:48;3.50;67.10
1347;DHT22;667;48.796;9.480;2023-03-01T04:00:21;3.50;67.10
1347;DHT22;667;48.796;9.480;2023-03-01T04:02:47;3.50;67.10
1347;DHT22;667;48.796;9.480;2023-03-01T04:05:15;3.50;67.00
1347;DHT22;667;48.796;9.480;2023-03-01T04:07:42;3.50;66.90
1347;DHT22;667;48.796;9.480;2023-03-01T04:10:10;3.50;66.90
1347;DHT22;667;48.796;9.480;2023-03-01T04:12:36;3.60;67.00
1347;DHT22;667;48.796;9.480;2023-03-01T04:15:04;3.60;67.10
1347;DHT22;667;48.796;9.480;2023-03-01T04:17:45;3.60;67.00
1347;DHT22;667;48.796;9.480;2023-03-01T04:20:17;3.60;67.00
1347;DHT22;667;48.796;9.480;2023-03-01T04:22:44;3.60;67.00
1347;DHT22;667;48.796;9.480;2023-03-01T04:25:13;3.60;66.90
1347;DHT22;667;48.796;9.480;2023-03-01T04:27:40;3.60;66.80
1347;DHT22;667;48.796;9.480;2023-03-01T04:30:07;3.60;66.70
1347;DHT22;667;48.796;9.480;2023-03-01T04:32:33;3.60;66.70
1347;DHT22;667;48.796;9.480;2023-03-01T04:34:59;3.70;66.70
1347;DHT22;667;48.796;9.480;2023-03-01T04:37:25;3.60;66.50
1347;DHT22;667;48.796;9.480;2023-03-01T04:39:51;3.70;66.70
1347;DHT22;667;48.796;9.480;2023-03-01T04:42:16;3.60;66.50
1347;DHT22;667;48.796;9.480;2023-03-01T04:44:42;3.70;66.70
1347;DHT22;667;48.796;9.480;2023-03-01T04:47:08;3.70;66.70
1347;DHT22;667;48.796;9.480;2023-03-01T04:49:34;3.70;66.80
1347;DHT22;667;48.796;9.480;2023-03-01T04:51:59;3.70;66.80
1347;DHT22;667;48.796;9.480;2023-03-01T04:54:28;3.70;66.70
1347;DHT22;667;48.796;9.480;2023-03-01T04:56:54;3.70;66.80
1347;DHT22;667;48.796;9.480;2023-03-01T04:59:20;3.70;66.80
1347;DHT22;667;48.796;9.480;2023-03-01T05:01:51;3.70;66.90
1347;DHT22;667;48.796;9.480;2023-03-01T05:04:17;3.70;67.00
1347;DHT22;667;48.796;9.480;2023-03-01T05:06:43;3.70;67.00
1347;DHT22;667;48.796;9.480;2023-03-01T05:09:09;3.70;67.10
1347;DHT22;667;48.796;9.480;2023-03-01T05:11:34;3.70;67.20
1347;DHT22;667;48.796;9.480;2023-03-01T05:14:08;3.70;67.10
1347;DHT22;667;48.796;9.480;2023-03-01T05:16:34;3.80;67.20
1347;DHT22;667;48.796;9.480;2023-03-01T05:19:01;3.80;67.00
1347;DHT22;667;48.796;9.480;2023-03-01T05:21:37;3.80;67.10
1347;DHT22;667;48.796;9.480;2023-03-01T05:24:23;3.80;67.20
1347;DHT22;667;48.796;9.480;2023-03-01T05:26:49;3.80;67.30
1347;DHT22;667;48.796;9.480;2023-03-01T05:29:17;3.80;67.30
1347;DHT22;667;48.796;9.480;2023-03-01T05:31:43;3.80;67.30
1347;DHT22;667;48.796;9.480;2023-03-01T05:34:09;3.80;67.30
1347;DHT22;667;48.796;9.480;2023-03-01T05:36:34;3.80;67.30
1347;DHT22;667;48.796;9.480;2023-03-01T05:39:00;3.80;67.30
1347;DHT22;667;48.796;9.480;2023-03-01T05:41:26;3.80;67.30
1347;DHT22;667;48.796;9.480;2023-03-01T05:43:51;3.80;67.10
1347;DHT22;667;48.796;9.480;2023-03-01T05:46:17;3.80;67.10
1347;DHT22;667;48.796;9.480;2023-03-01T05:48:42;3.90;67.20
1347;DHT22;667;48.796;9.480;2023-03-01T05:51:08;3.90;67.30
1347;DHT22;667;48.796;9.480;2023-03-01T05:53:34;3.90;67.30
1347;DHT22;667;48.796;9.480;2023-03-01T05:56:03;3.90;67.30
1347;DHT22;667;48.796;9.480;2023-03-01T05:58:29;3.90;67.30
1347;DHT22;667;48.796;9.480;2023-03-01T06:00:54;3.90;67.30
1347;DHT22;667;48.796;9.480;2023-03-01T06:03:20;3.90;67.40
1347;DHT22;667;48.796;9.480;2023-03-01T06:05:45;3.90;67.50
1347;DHT22;667;48.796;9.480;2023-03-01T06:08:11;3.90;67.50
1347;DHT22;667;48.796;9.480;2023-03-01T06:10:37;3.90;67.50
1347;DHT22;667;48.796;9.480;2023-03-01T06:13:03;3.90;67.40
1347;DHT22;667;48.796;9.480;2023-03-01T06:15:29;3.90;67.50
1347;DHT22;667;48.796;9.480;2023-03-01T06:17:55;3.90;67.50
1347;DHT22;667;48.796;9.480;2023-03-01T06:20:28;3.90;67.30
1347;DHT22;667;48.796;9.480;2023-03-01T06:22:57;3.90;67.30
1347;DHT22;667;48.796;9.480;2023-03-01T06:25:23;3.90;67.10
1347;DHT22;667;48.796;9.480;2023-03-01T06:27:49;3.90;67.10
1347;DHT22;667;48.796;9.480;2023-03-01T06:30:17;3.90;67.20
1347;DHT22;667;48.796;9.480;2023-03-01T06:32:44;3.90;67.20
1347;DHT22;667;48.796;9.480;2023-03-01T06:35:11;3.90;67.30
1347;DHT22;667;48.796;9.480;2023-03-01T06:37:37;3.80;67.20
1347;DHT22;667;48.796;9.480;2023-03-01T06:40:04;3.80;67.30
1347;DHT22;667;48.796;9.480;2023-03-01T06:42:34;3.80;67.10
1347;DHT22;667;48.796;9.480;2023-03-01T06:45:00;3.80;67.10
1347;DHT22;667;48.796;9.480;2023-03-01T06:47:25;3.80;67.10
1347;DHT22;667;48.796;9.480;2023-03-01T06:49:51;3.80;67.00
1347;DHT22;667;48.796;9.480;2023-03-01T06:52:16;3.80;66.90
1347;DHT22;667;48.796;9.480;2023-03-01T06:54:42;3.80;67.00
1347;DHT22;667;48.796;9.480;2023-03-01T06:57:07;3.80;67.00
1347;DHT22;667;48.796;9.480;2023-03-01T06:59:33;3.80;67.00
1347;DHT22;667;48.796;9.480;2023-03-01T07:01:58;3.80;66.90
1347;DHT22;667;48.796;9.480;2023-03-01T07:04:24;3.80;66.90
1347;DHT22;667;48.796;9.480;2023-03-01T07:06:49;3.80;66.90
1347;DHT22;667;48.796;9.480;2023-03-01T07:09:23;3.80;67.00
1347;DHT22;667;48.796;9.480;2023-03-01T07:11:49;3.80;67.10
1347;DHT22;667;48.796;9.480;2023-03-01T07:14:15;3.80;67.20
1347;DHT22;667;48.796;9.480;2023-03-01T07:16:41;3.80;67.20
1347;DHT22;667;48.796;9.480;2023-03-01T07:19:07;3.80;67.30
1347;DHT22;667;48.796;9.480;2023-03-01T07:21:32;3.90;67.40
1347;DHT22;667;48.796;9.480;2023-03-01T07:23:58;3.90;67.40
1347;DHT22;667;48.796;9.480;2023-03-01T07:26:23;4.00;67.40
1347;DHT22;667;48.796;9.480;2023-03-01T07:28:49;4.00;67.30
1347;DHT22;667;48.796;9.480;2023-03-01T07:31:14;4.10;67.40
1347;DHT22;667;48.796;9.480;2023-03-01T07:33:40;4.20;67.30
1347;DHT22;667;48.796;9.480;2023-03-01T07:36:06;4.30;66.80
1347;DHT22;667;48.796;9.480;2023-03-01T07:38:32;4.30;66.30
1347;DHT22;667;48.796;9.480;2023-03-01T07:41:00;4.40;66.00
1347;DHT22;667;48.796;9.480;2023-03-01T07:43:27;4.50;64.60
1347;DHT22;667;48.796;9.480;2023-03-01T07:45:53;4.50;63.70
1347;DHT22;667;48.796;9.480;2023-03-01T07:48:18;4.60;63.00
1347;DHT22;667;48.796;9.480;2023-03-01T07:50:44;4.70;62.40
1347;DHT22;667;48.796;9.480;2023-03-01T07:53:10;4.70;62.10
1347;DHT22;667;48.796;9.480;2023-03-01T07:55:36;4.80;61.60
1347;DHT22;667;48.796;9.480;2023-03-01T07:58:03;4.80;60.70
1347;DHT22;667;48.796;9.480;2023-03-01T08:00:29;4.90;61.00
1347;DHT22;667;48.796;9.480;2023-03-01T08:02:58;4.90;60.60
1347;DHT22;667;48.796;9.480;2023-03-01T08:05:23;5.00;60.10
1347;DHT22;667;48.796;9.480;2023-03-01T08:07:49;5.00;60.00
1347;DHT22;667;48.796;9.480;2023-03-01T08:10:14;5.10;59.70
1347;DHT22;667;48.796;9.480;2023-03-01T08:12:40;5.10;59.40
1347;DHT22;667;48.796;9.480;2023-03-01T08:15:06;5.20;59.50
1347;DHT22;667;48.796;9.480;2023-03-01T08:17:32;5.20;58.80
1347;DHT22;667;48.796;9.480;2023-03-01T08:19:58;5.30;59.00
1347;DHT22;667;48.796;9.480;2023-03-01T08:22:24;5.40;59.00
1347;DHT22;667;48.796;9.480;2023-03-01T08:24:49;5.50;58.90
1347;DHT22;667;48.796;9.480;2023-03-01T08:27:16;5.60;59.40
1347;DHT22;667;48.796;9.480;2023-03-01T08:29:41;5.60;59.20
1347;DHT22;667;48.796;9.480;2023-03-01T08:32:07;5.70;57.50
1347;DHT22;667;48.796;9.480;2023-03-01T08:34:33;5.70;57.20
1347;DHT22;667;48.796;9.480;2023-03-01T08:37:01;5.80;57.50
1347;DHT22;667;48.796;9.480;2023-03-01T08:39:26;5.90;57.80
1347;DHT22;667;48.796;9.480;2023-03-01T08:41:52;6.00;57.70
1347;DHT22;667;48.796;9.480;2023-03-01T08:44:18;6.10;57.40
1347;DHT22;667;48.796;9.480;2023-03-01T08:46:43;6.20;56.90
1347;DHT22;667;48.796;9.480;2023-03-01T08:49:17;6.30;56.70
1347;DHT22;667;48.796;9.480;2023-03-01T08:51:44;6.40;56.60
1347;DHT22;667;48.796;9.480;2023-03-01T08:54:12;6.40;55.80
1347;DHT22;667;48.796;9.480;2023-03-01T08:56:40;6.60;56.20
1347;DHT22;667;48.796;9.480;2023-03-01T08:59:05;6.70;56.40
1347;DHT22;667;48.796;9.480;2023-03-01T09:01:31;6.80;56.30
1347;DHT22;667;48.796;9.480;2023-03-01T09:03:56;7.00;55.70
1347;DHT22;667;48.796;9.480;2023-03-01T09:06:22;7.10;54.80
1347;DHT22;667;48.796;9.480;2023-03-01T09:08:49;7.20;54.60
1347;DHT22;667;48.796;9.480;2023-03-01T09:11:17;7.30;54.20
1347;DHT22;667;48.796;9.480;2023-03-01T09:13:44;7.40;54.30
1347;DHT22;667;48.796;9.480;2023-03-01T09:16:11;7.50;54.10
1347;DHT22;667;48.796;9.480;2023-03-01T09:18:37;7.60;53.40
1347;DHT22;667;48.796;9.480;2023-03-01T09:21:05;7.80;53.50
1347;DHT22;667;48.796;9.480;2023-03-01T09:23:38;7.90;53.20
1347;DHT22;667;48.796;9.480;2023-03-01T09:26:09;8.00;52.80
1347;DHT22;667;48.796;9.480;2023-03-01T09:28:36;8.10;52.80
1347;DHT22;667;48.796;9.480;2023-03-01T09:31:02;8.20;51.60
1347;DHT22;667;48.796;9.480;2023-03-01T09:33:29;8.20;50.90
1347;DHT22;667;48.796;9.480;2023-03-01T09:35:59;8.30;51.70
1347;DHT22;667;48.796;9.480;2023-03-01T09:38:26;8.30;51.90
1347;DHT22;667;48.796;9.480;2023-03-01T09:40:52;8.50;51.90
1347;DHT22;667;48.796;9.480;2023-03-01T09:43:49;8.60;50.80
1347;DHT22;667;48.796;9.480;2023-03-01T09:46:20;8.70;50.40
1347;DHT22;667;48.796;9.480;2023-03-01T09:49:01;8.80;49.90
1347;DHT22;667;48.796;9.480;2023-03-01T09:51:34;8.90;49.50
1347;DHT22;667;48.796;9.480;2023-03-01T09:54:04;8.90;49.50
1347;DHT22;667;48.796;9.480;2023-03-01T10:04:55;9.30;48.70
1347;DHT22;667;48.796;9.480;2023-03-01T10:09:53;9.50;48.70
1347;DHT22;667;48.796;9.480;2023-03-01T10:12:22;9.60;48.80
1347;DHT22;667;48.796;9.480;2023-03-01T10:17:26;9.80;48.10
1347;DHT22;667;48.796;9.480;2023-03-01T10:19:52;9.90;48.80
1347;DHT22;667;48.796;9.480;2023-03-01T10:22:22;10.10;47.40
1347;DHT22;667;48.796;9.480;2023-03-01T10:24:53;10.30;47.60
1347;DHT22;667;48.796;9.480;2023-03-01T10:32:19;10.50;45.90
1347;DHT22;667;48.796;9.480;2023-03-01T10:34:47;10.60;45.70
1347;DHT22;667;48.796;9.480;2023-03-01T10:37:20;10.60;45.60
1347;DHT22;667;48.796;9.480;2023-03-01T10:40:09;10.70;45.90
1347;DHT22;667;48.796;9.480;2023-03-01T10:48:12;11.10;45.80
1347;DHT22;667;48.796;9.480;2023-03-01T10:50:40;11.20;45.00
1347;DHT22;667;48.796;9.480;2023-03-01T10:53:42;11.20;44.90
1347;DHT22;667;48.796;9.480;2023-03-01T10:56:10;11.30;45.10
1347;DHT22;667;48.796;9.480;2023-03-01T10:58:40;11.40;45.10
1347;DHT22;667;48.796;9.480;2023-03-01T11:01:25;11.40;44.60
1347;DHT22;667;48.796;9.480;2023-03-01T11:06:33;11.50;44.10
1347;DHT22;667;48.796;9.480;2023-03-01T11:11:42;11.60;43.60
1347;DHT22;667;48.796;9.480;2023-03-01T11:14:16;11.50;43.40
1347;DHT22;667;48.796;9.480;2023-03-01T11:16:44;11.50;43.70
1347;DHT22;667;48.796;9.480;2023-03-01T11:24:18;11.50;43.40
1347;DHT22;667;48.796;9.480;2023-03-01T11:26:50;11.50;43.30
1347;DHT22;667;48.796;9.480;2023-03-01T11:29:35;11.50;43.50
1347;DHT22;667;48.796;9.480;2023-03-01T11:32:06;11.50;43.20
1347;DHT22;667;48.796;9.480;2023-03-01T11:37:16;11.50;43.80
1347;DHT22;667;48.796;9.480;2023-03-01T11:42:46;11.50;43.80
1347;DHT22;667;48.796;9.480;2023-03-01T11:45:13;11.50;44.20
1347;DHT22;667;48.796;9.480;2023-03-01T11:50:28;11.50;43.90
1347;DHT22;667;48.796;9.480;2023-03-01T11:53:13;11.50;43.70
1347;DHT22;667;48.796;9.480;2023-03-01T11:58:59;11.50;43.50
1347;DHT22;667;48.796;9.480;2023-03-01T12:06:38;11.30;44.10
1347;DHT22;667;48.796;9.480;2023-03-01T12:12:03;11.30;44.10
1347;DHT22;667;48.796;9.480;2023-03-01T12:17:32;11.30;44.30
1347;DHT22;667;48.796;9.480;2023-03-01T12:38:42;11.00;45.10
1347;DHT22;667;48.796;9.480;2023-03-01T12:44:32;10.90;45.10
1347;DHT22;667;48.796;9.480;2023-03-01T12:49:55;10.90;46.00
1347;DHT22;667;48.796;9.480;2023-03-01T12:52:57;10.90;45.70
1347;DHT22;667;48.796;9.480;2023-03-01T12:55:35;10.90;45.30
1347;DHT22;667;48.796;9.480;2023-03-01T12:58:24;10.90;45.30
1347;DHT22;667;48.796;9.480;2023-03-01T13:09:35;11.00;45.50
1347;DHT22;667;48.796;9.480;2023-03-01T13:12:03;11.00;45.40
1347;DHT22;667;48.796;9.480;2023-03-01T13:16:57;11.00;45.80
1347;DHT22;667;48.796;9.480;2023-03-01T13:19:24;11.00;45.20
1347;DHT22;667;48.796;9.480;2023-03-01T13:21:52;11.00;45.50
1347;DHT22;667;48.796;9.480;2023-03-01T13:24:39;11.00;45.30
1347;DHT22;667;48.796;9.480;2023-03-01T13:27:09;11.00;45.50
1347;DHT22;667;48.796;9.480;2023-03-01T13:32:29;11.10;45.40
1347;DHT22;667;48.796;9.480;2023-03-01T13:35:02;11.10;46.00
1347;DHT22;667;48.796;9.480;2023-03-01T13:37:38;11.20;46.10
1347;DHT22;667;48.796;9.480;2023-03-01T13:42:49;11.20;46.40
1347;DHT22;667;48.796;9.480;2023-03-01T13:45:22;11.30;45.90
1347;DHT22;667;48.796;9.480;2023-03-01T13:47:54;11.30;45.90
1347;DHT22;667;48.796;9.480;2023-03-01T13:50:25;11.40;45.90
1347;DHT22;667;48.796;9.480;2023-03-01T13:52:55;11.40;45.30
1347;DHT22;667;48.796;9.480;2023-03-01T13:55:51;11.30;45.30
1347;DHT22;667;48.796;9.480;2023-03-01T14:00:54;11.30;45.60
1347;DHT22;667;48.796;9.480;2023-03-01T14:03:20;11.40;45.70
1347;DHT22;667;48.796;9.480;2023-03-01T14:08:31;11.40;45.10
1347;DHT22;667;48.796;9.480;2023-03-01T14:11:30;11.30;45.40
1347;DHT22;667;48.796;9.480;2023-03-01T14:19:27;11.20;45.70
1347;DHT22;667;48.796;9.480;2023-03-01T14:24:48;11.10;45.90
1347;DHT22;667;48.796;9.480;2023-03-01T14:27:15;11.10;46.50
1347;DHT22;667;48.796;9.480;2023-03-01T14:29:41;11.10;46.00
1347;DHT22;667;48.796;9.480;2023-03-01T14:32:22;11.10;45.90
1347;DHT22;667;48.796;9.480;2023-03-01T14:34:50;11.00;45.90
1347;DHT22;667;48.796;9.480;2023-03-01T14:39:44;10.90;46.20
1347;DHT22;667;48.796;9.480;2023-03-01T14:42:09;11.00;46.00
1347;DHT22;667;48.796;9.480;2023-03-01T14:44:36;11.00;46.30
1347;DHT22;667;48.796;9.480;2023-03-01T14:47:03;10.90;46.10
1347;DHT22;667;48.796;9.480;2023-03-01T14:49:30;10.90;46.20
1347;DHT22;667;48.796;9.480;2023-03-01T14:52:06;10.90;46.10
1347;DHT22;667;48.796;9.480;2023-03-01T14:54:40;10.90;46.20
1347;DHT22;667;48.796;9.480;2023-03-01T14:57:21;10.90;46.20
1347;DHT22;667;48.796;9.480;2023-03-01T14:59:48;10.90;46.20
1347;DHT22;667;48.796;9.480;2023-03-01T15:02:19;10.90;45.90
1347;DHT22;667;48.796;9.480;2023-03-01T15:04:56;10.90;45.80
1347;DHT22;667;48.796;9.480;2023-03-01T15:07:28;10.80;45.80
1347;DHT22;667;48.796;9.480;2023-03-01T15:09:54;10.80;46.10
1347;DHT22;667;48.796;9.480;2023-03-01T15:12:35;10.80;46.10
1347;DHT22;667;48.796;9.480;2023-03-01T15:15:30;10.80;46.10
1347;DHT22;667;48.796;9.480;2023-03-01T15:17:58;10.80;46.20
1347;DHT22;667;48.796;9.480;2023-03-01T15:20:25;10.80;46.20
1347;DHT22;667;48.796;9.480;2023-03-01T15:22:53;10.70;46.00
1347;DHT22;667;48.796;9.480;2023-03-01T15:25:23;10.70;46.30
1347;DHT22;667;48.796;9.480;2023-03-01T15:27:51;10.60;46.30
1347;DHT22;667;48.796;9.480;2023-03-01T15:30:32;10.50;46.20
1347;DHT22;667;48.796;9.480;2023-03-01T15:33:29;10.50;46.40
1347;DHT22;667;48.796;9.480;2023-03-01T15:36:29;10.50;46.50
1347;DHT22;667;48.796;9.480;2023-03-01T15:38:55;10.50;46.70
1347;DHT22;667;48.796;9.480;2023-03-01T15:41:25;10.50;46.50
1347;DHT22;667;48.796;9.480;2023-03-01T15:43:51;10.50;46.70
1347;DHT22;667;48.796;9.480;2023-03-01T15:46:34;10.50;46.80
1347;DHT22;667;48.796;9.480;2023-03-01T15:49:39;10.40;46.80
1347;DHT22;667;48.796;9.480;2023-03-01T15:52:11;10.40;46.70
1347;DHT22;667;48.796;9.480;2023-03-01T15:54:39;10.40;46.70
1347;DHT22;667;48.796;9.480;2023-03-01T15:57:12;10.40;46.90
1347;DHT22;667;48.796;9.480;2023-03-01T15:59:38;10.40;47.00
1347;DHT22;667;48.796;9.480;2023-03-01T16:02:11;10.30;47.00
1347;DHT22;667;48.796;9.480;2023-03-01T16:04:38;10.30;47.20
1347;DHT22;667;48.796;9.480;2023-03-01T16:07:04;10.30;47.30
1347;DHT22;667;48.796;9.480;2023-03-01T16:09:29;10.30;47.10
1347;DHT22;667;48.796;9.480;2023-03-01T16:11:55;10.30;47.00
1347;DHT22;667;48.796;9.480;2023-03-01T16:14:21;10.20;47.00
1347;DHT22;667;48.796;9.480;2023-03-01T16:16:47;10.20;47.10
1347;DHT22;667;48.796;9.480;2023-03-01T16:19:14;10.20;47.20
1347;DHT22;667;48.796;9.480;2023-03-01T16:21:40;10.10;47.00
1347;DHT22;667;48.796;9.480;2023-03-01T16:24:06;10.10;47.20
1347;DHT22;667;48.796;9.480;2023-03-01T16:26:31;10.10;47.30
1347;DHT22;667;48.796;9.480;2023-03-01T16:28:58;10.10;47.40
1347;DHT22;667;48.796;9.480;2023-03-01T16:31:24;10.10;47.40
1347;DHT22;667;48.796;9.480;2023-03-01T16:33:54;10.10;47.30
1347;DHT22;667;48.796;9.480;2023-03-01T16:36:20;10.00;47.10
1347;DHT22;667;48.796;9.480;2023-03-01T16:38:48;10.00;47.10
1347;DHT22;667;48.796;9.480;2023-03-01T16:41:16;9.90;48.00
1347;DHT22;667;48.796;9.480;2023-03-01T16:43:42;9.90;48.20
1347;DHT22;667;48.796;9.480;2023-03-01T16:46:22;9.90;48.20
1347;DHT22;667;48.796;9.480;2023-03-01T16:48:48;9.80;48.20
1347;DHT22;667;48.796;9.480;2023-03-01T16:51:14;9.80;48.20
1347;DHT22;667;48.796;9.480;2023-03-01T16:53:40;9.80;48.20
1347;DHT22;667;48.796;9.480;2023-03-01T16:56:08;9.70;48.00
1347;DHT22;667;48.796;9.480;2023-03-01T16:58:35;9.70;48.30
1347;DHT22;667;48.796;9.480;2023-03-01T17:01:13;9.70;48.40
1347;DHT22;667;48.796;9.480;2023-03-01T17:03:39;9.70;48.60
1347;DHT22;667;48.796;9.480;2023-03-01T17:06:08;9.70;48.70
1347;DHT22;667;48.796;9.480;2023-03-01T17:08:35;9.60;48.50
1347;DHT22;667;48.796;9.480;2023-03-01T17:11:07;9.60;48.50
1347;DHT22;667;48.796;9.480;2023-03-01T17:13:34;9.60;48.80
1347;DHT22;667;48.796;9.480;2023-03-01T17:16:02;9.60;48.70
1347;DHT22;667;48.796;9.480;2023-03-01T17:18:28;9.50;48.60
1347;DHT22;667;48.796;9.480;2023-03-01T17:20:54;9.50;48.90
1347;DHT22;667;48.796;9.480;2023-03-01T17:23:19;9.50;49.80
1347;DHT22;667;48.796;9.480;2023-03-01T17:25:45;9.40;50.60
1347;DHT22;667;48.796;9.480;2023-03-01T17:28:12;9.30;51.10
1347;DHT22;667;48.796;9.480;2023-03-01T17:30:41;9.20;51.50
1347;DHT22;667;48.796;9.480;2023-03-01T17:33:06;9.00;52.00
1347;DHT22;667;48.796;9.480;2023-03-01T17:35:32;8.90;52.40
1347;DHT22;667;48.796;9.480;2023-03-01T17:38:03;8.80;52.70
1347;DHT22;667;48.796;9.480;2023-03-01T17:40:29;8.70;52.90
1347;DHT22;667;48.796;9.480;2023-03-01T17:42:54;8.60;53.10
1347;DHT22;667;48.796;9.480;2023-03-01T17:45:21;8.40;53.30
1347;DHT22;667;48.796;9.480;2023-03-01T17:47:47;8.40;53.70
1347;DHT22;667;48.796;9.480;2023-03-01T17:50:13;8.20;54.00
1347;DHT22;667;48.796;9.480;2023-03-01T17:52:38;8.10;54.20
1347;DHT22;667;48.796;9.480;2023-03-01T17:55:06;8.10;54.40
1347;DHT22;667;48.796;9.480;2023-03-01T17:57:32;8.00;54.50
1347;DHT22;667;48.796;9.480;2023-03-01T17:59:58;7.90;54.80
1347;DHT22;667;48.796;9.480;2023-03-01T18:02:23;7.80;55.00
1347;DHT22;667;48.796;9.480;2023-03-01T18:04:51;7.80;55.10
1347;DHT22;667;48.796;9.480;2023-03-01T18:07:18;7.70;55.30
1347;DHT22;667;48.796;9.480;2023-03-01T18:09:43;7.60;55.20
1347;DHT22;667;48.796;9.480;2023-03-01T18:12:09;7.60;55.30
1347;DHT22;667;48.796;9.480;2023-03-01T18:14:35;7.50;55.60
1347;DHT22;667;48.796;9.480;2023-03-01T18:17:01;7.50;55.90
1347;DHT22;667;48.796;9.480;2023-03-01T18:19:30;7.40;56.00
1347;DHT22;667;48.796;9.480;2023-03-01T18:21:56;7.30;56.10
1347;DHT22;667;48.796;9.480;2023-03-01T18:24:21;7.30;56.30
1347;DHT22;667;48.796;9.480;2023-03-01T18:26:47;7.20;56.40
1347;DHT22;667;48.796;9.480;2023-03-01T18:29:13;7.20;56.60
1347;DHT22;667;48.796;9.480;2023-03-01T18:31:38;7.10;56.70
1347;DHT22;667;48.796;9.480;2023-03-01T18:34:04;7.10;56.80
1347;DHT22;667;48.796;9.480;2023-03-01T18:36:33;7.10;56.80
1347;DHT22;667;48.796;9.480;2023-03-01T18:39:01;7.00;57.00
1347;DHT22;667;48.796;9.480;2023-03-01T18:41:27;7.00;57.10
1347;DHT22;667;48.796;9.480;2023-03-01T18:43:54;7.00;57.30
1347;DHT22;667;48.796;9.480;2023-03-01T18:46:20;6.90;57.40
1347;DHT22;667;48.796;9.480;2023-03-01T18:48:47;6.90;57.50